sensor_id;sensor_type;location;lat;lon;timestamp;P1;durP1;ratioP1;P2;durP2;ratioP2
72358;SDS011;60317;48.880;-0.862;2023-04-03T00:02:24;4.53;;;1.58;;
72358;SDS011;60317;48.880;-0.862;2023-04-03T00:04:51;4.88;;;1.60;;
72358;SDS011;60317;48.880;-0.862;2023-04-03T00:07:17;5.53;;;1.45;;
72358;SDS011;60317;48.880;-0.862;2023-04-03T00:09:45;4.90;;;1.65;;
72358;SDS011;60317;48.880;-0.862;2023-04-03T00:12:12;4.05;;;1.35;;
72358;SDS011;60317;48.880;-0.862;2023-04-03T00:14:38;4.43;;;1.70;;
72358;SDS011;60317;48.880;-0.862;2023-04-03T00:17:05;4.68;;;1.50;;
72358;SDS011;60317;48.880;-0.862;2023-04-03T00:19:31;2.90;;;1.05;;
72358;SDS011;60317;48.880;-0.862;2023-04-03T00:21:58;5.40;;;1.60;;
72358;SDS011;60317;48.880;-0.862;2023-04-03T00:24:24;4.13;;;1.52;;
72358;SDS011;60317;48.880;-0.862;2023-04-03T00:26:52;3.80;;;1.48;;
72358;SDS011;60317;48.880;-0.862;2023-04-03T00:29:19;4.82;;;1.58;;
72358;SDS011;60317;48.880;-0.862;2023-04-03T00:31:45;5.28;;;2.03;;
72358;SDS011;60317;48.880;-0.862;2023-04-03T00:34:12;3.50;;;1.42;;
72358;SDS011;60317;48.880;-0.862;2023-04-03T00:36:38;3.45;;;1.40;;
72358;SDS011;60317;48.880;-0.862;2023-04-03T00:39:05;4.10;;;1.40;;
72358;SDS011;60317;48.880;-0.862;2023-04-03T00:41:32;5.28;;;1.63;;
72358;SDS011;60317;48.880;-0.862;2023-04-03T00:43:59;4.78;;;1.30;;
72358;SDS011;60317;48.880;-0.862;2023-04-03T00:46:26;4.15;;;1.50;;
72358;SDS011;60317;48.880;-0.862;2023-04-03T00:48:53;3.00;;;1.40;;
72358;SDS011;60317;48.880;-0.862;2023-04-03T00:51:20;5.45;;;1.58;;
72358;SDS011;60317;48.880;-0.862;2023-04-03T00:53:51;3.15;;;1.40;;
72358;SDS011;60317;48.880;-0.862;2023-04-03T00:56:21;3.85;;;1.40;;
72358;SDS011;60317;48.880;-0.862;2023-04-03T00:58:51;3.28;;;1.17;;
72358;SDS011;60317;48.880;-0.862;2023-04-03T01:01:25;3.15;;;1.17;;
72358;SDS011;60317;48.880;-0.862;2023-04-03T01:03:53;5.20;;;1.83;;
72358;SDS011;60317;48.880;-0.862;2023-04-03T01:06:21;3.05;;;1.50;;
72358;SDS011;60317;48.880;-0.862;2023-04-03T01:08:51;3.38;;;1.30;;
72358;SDS011;60317;48.880;-0.862;2023-04-03T01:11:19;3.00;;;1.30;;
72358;SDS011;60317;48.880;-0.862;2023-04-03T01:13:45;4.80;;;1.45;;
72358;SDS011;60317;48.880;-0.862;2023-04-03T01:16:12;2.70;;;1.30;;
72358;SDS011;60317;48.880;-0.862;2023-04-03T01:18:40;4.00;;;1.30;;
72358;SDS011;60317;48.880;-0.862;2023-04-03T01:21:12;3.58;;;1.27;;
72358;SDS011;60317;48.880;-0.862;2023-04-03T01:23:58;5.65;;;1.70;;
72358;SDS011;60317;48.880;-0.862;2023-04-03T01:26:33;3.60;;;1.38;;
72358;SDS011;60317;48.880;-0.862;2023-04-03T01:28:59;4.93;;;1.42;;
72358;SDS011;60317;48.880;-0.862;2023-04-03T01:31:27;3.85;;;1.52;;
72358;SDS011;60317;48.880;-0.862;2023-04-03T01:33:58;3.42;;;1.58;;
72358;SDS011;60317;48.880;-0.862;2023-04-03T01:36:25;3.80;;;1.52;;
72358;SDS011;60317;48.880;-0.862;2023-04-03T01:38:54;2.17;;;1.30;;
72358;SDS011;60317;48.880;-0.862;2023-04-03T01:41:22;3.30;;;1.40;;
72358;SDS011;60317;48.880;-0.862;2023-04-03T01:43:49;2.53;;;1.00;;
72358;SDS011;60317;48.880;-0.862;2023-04-03T01:46:16;3.35;;;1.30;;
72358;SDS011;60317;48.880;-0.862;2023-04-03T01:48:43;4.63;;;1.33;;
72358;SDS011;60317;48.880;-0.862;2023-04-03T01:51:11;3.00;;;1.38;;
72358;SDS011;60317;48.880;-0.862;2023-04-03T01:53:37;3.50;;;1.45;;
72358;SDS011;60317;48.880;-0.862;2023-04-03T01:56:05;4.10;;;1.40;;
72358;SDS011;60317;48.880;-0.862;2023-04-03T01:58:32;4.85;;;1.40;;
72358;SDS011;60317;48.880;-0.862;2023-04-03T02:00:58;5.60;;;1.60;;
72358;SDS011;60317;48.880;-0.862;2023-04-03T02:03:25;5.15;;;1.40;;
72358;SDS011;60317;48.880;-0.862;2023-04-03T02:05:51;5.32;;;1.35;;
72358;SDS011;60317;48.880;-0.862;2023-04-03T02:08:20;3.67;;;1.00;;
72358;SDS011;60317;48.880;-0.862;2023-04-03T02:10:46;2.75;;;1.30;;
72358;SDS011;60317;48.880;-0.862;2023-04-03T02:13:14;2.13;;;1.15;;
72358;SDS011;60317;48.880;-0.862;2023-04-03T02:15:40;5.20;;;1.30;;
72358;SDS011;60317;48.880;-0.862;2023-04-03T02:18:07;3.05;;;1.30;;
72358;SDS011;60317;48.880;-0.862;2023-04-03T02:20:34;5.25;;;1.50;;
72358;SDS011;60317;48.880;-0.862;2023-04-03T02:23:01;3.13;;;1.30;;
72358;SDS011;60317;48.880;-0.862;2023-04-03T02:25:29;3.53;;;1.30;;
72358;SDS011;60317;48.880;-0.862;2023-04-03T02:27:56;4.47;;;1.50;;
72358;SDS011;60317;48.880;-0.862;2023-04-03T02:30:23;3.42;;;1.35;;
72358;SDS011;60317;48.880;-0.862;2023-04-03T02:32:49;3.95;;;1.30;;
72358;SDS011;60317;48.880;-0.862;2023-04-03T02:35:16;3.58;;;1.40;;
72358;SDS011;60317;48.880;-0.862;2023-04-03T02:37:42;3.25;;;1.23;;
72358;SDS011;60317;48.880;-0.862;2023-04-03T02:40:09;2.25;;;1.13;;
72358;SDS011;60317;48.880;-0.862;2023-04-03T02:42:37;3.15;;;1.27;;
72358;SDS011;60317;48.880;-0.862;2023-04-03T02:45:04;3.42;;;1.60;;
72358;SDS011;60317;48.880;-0.862;2023-04-03T02:47:31;3.92;;;1.40;;
72358;SDS011;60317;48.880;-0.862;2023-04-03T02:49:58;4.18;;;1.20;;
72358;SDS011;60317;48.880;-0.862;2023-04-03T02:52:24;2.60;;;1.17;;
72358;SDS011;60317;48.880;-0.862;2023-04-03T02:54:51;3.28;;;1.25;;
72358;SDS011;60317;48.880;-0.862;2023-04-03T02:57:17;4.18;;;1.50;;
72358;SDS011;60317;48.880;-0.862;2023-04-03T02:59:45;4.25;;;1.20;;
72358;SDS011;60317;48.880;-0.862;2023-04-03T03:02:12;3.95;;;1.40;;
72358;SDS011;60317;48.880;-0.862;2023-04-03T03:04:38;3.67;;;1.50;;
72358;SDS011;60317;48.880;-0.862;2023-04-03T03:07:05;2.67;;;1.33;;
72358;SDS011;60317;48.880;-0.862;2023-04-03T03:09:31;3.28;;;1.15;;
72358;SDS011;60317;48.880;-0.862;2023-04-03T03:11:58;3.40;;;1.30;;
72358;SDS011;60317;48.880;-0.862;2023-04-03T03:14:24;3.30;;;1.33;;
72358;SDS011;60317;48.880;-0.862;2023-04-03T03:16:52;4.68;;;1.33;;
72358;SDS011;60317;48.880;-0.862;2023-04-03T03:19:19;4.03;;;1.40;;
72358;SDS011;60317;48.880;-0.862;2023-04-03T03:21:45;3.97;;;1.42;;
72358;SDS011;60317;48.880;-0.862;2023-04-03T03:24:12;3.10;;;1.45;;
72358;SDS011;60317;48.880;-0.862;2023-04-03T03:26:38;2.10;;;1.05;;
72358;SDS011;60317;48.880;-0.862;2023-04-03T03:29:05;6.63;;;1.38;;
72358;SDS011;60317;48.880;-0.862;2023-04-03T03:31:31;3.75;;;1.50;;
72358;SDS011;60317;48.880;-0.862;2023-04-03T03:33:59;2.55;;;1.20;;
72358;SDS011;60317;48.880;-0.862;2023-04-03T03:36:26;2.55;;;1.38;;
72358;SDS011;60317;48.880;-0.862;2023-04-03T03:38:52;2.38;;;1.23;;
72358;SDS011;60317;48.880;-0.862;2023-04-03T03:41:19;3.33;;;1.45;;
72358;SDS011;60317;48.880;-0.862;2023-04-03T03:43:45;3.00;;;1.25;;
72358;SDS011;60317;48.880;-0.862;2023-04-03T03:46:12;2.28;;;1.15;;
72358;SDS011;60317;48.880;-0.862;2023-04-03T03:48:38;3.33;;;1.20;;
72358;SDS011;60317;48.880;-0.862;2023-04-03T03:51:06;3.30;;;1.20;;
72358;SDS011;60317;48.880;-0.862;2023-04-03T03:53:33;2.60;;;1.40;;
72358;SDS011;60317;48.880;-0.862;2023-04-03T03:55:59;2.50;;;1.23;;
72358;SDS011;60317;48.880;-0.862;2023-04-03T03:58:26;3.47;;;1.25;;
72358;SDS011;60317;48.880;-0.862;2023-04-03T04:00:52;2.08;;;1.10;;
72358;SDS011;60317;48.880;-0.862;2023-04-03T04:03:19;4.88;;;1.33;;
72358;SDS011;60317;48.880;-0.862;2023-04-03T04:05:45;3.00;;;1.30;;
72358;SDS011;60317;48.880;-0.862;2023-04-03T04:08:13;3.55;;;1.38;;
72358;SDS011;60317;48.880;-0.862;2023-04-03T04:10:40;1.60;;;1.02;;
72358;SDS011;60317;48.880;-0.862;2023-04-03T04:13:06;3.05;;;1.30;;
72358;SDS011;60317;48.880;-0.862;2023-04-03T04:15:33;4.20;;;1.65;;
72358;SDS011;60317;48.880;-0.862;2023-04-03T04:18:00;4.18;;;1.30;;
72358;SDS011;60317;48.880;-0.862;2023-04-03T04:20:27;2.88;;;1.38;;
72358;SDS011;60317;48.880;-0.862;2023-04-03T04:22:53;3.45;;;1.50;;
72358;SDS011;60317;48.880;-0.862;2023-04-03T04:25:21;3.42;;;1.33;;
72358;SDS011;60317;48.880;-0.862;2023-04-03T04:27:48;2.70;;;1.40;;
72358;SDS011;60317;48.880;-0.862;2023-04-03T04:30:14;2.03;;;1.20;;
72358;SDS011;60317;48.880;-0.862;2023-04-03T04:32:42;2.42;;;1.30;;
72358;SDS011;60317;48.880;-0.862;2023-04-03T04:35:08;3.80;;;1.33;;
72358;SDS011;60317;48.880;-0.862;2023-04-03T04:37:35;3.55;;;1.20;;
72358;SDS011;60317;48.880;-0.862;2023-04-03T04:40:02;4.43;;;1.40;;
72358;SDS011;60317;48.880;-0.862;2023-04-03T04:42:29;2.78;;;1.17;;
72358;SDS011;60317;48.880;-0.862;2023-04-03T04:44:56;2.92;;;1.40;;
72358;SDS011;60317;48.880;-0.862;2023-04-03T04:47:22;2.38;;;1.25;;
72358;SDS011;60317;48.880;-0.862;2023-04-03T04:49:49;3.22;;;1.23;;
72358;SDS011;60317;48.880;-0.862;2023-04-03T04:52:16;3.05;;;1.20;;
72358;SDS011;60317;48.880;-0.862;2023-04-03T04:54:42;1.77;;;1.05;;
72358;SDS011;60317;48.880;-0.862;2023-04-03T04:57:09;3.13;;;1.45;;
72358;SDS011;60317;48.880;-0.862;2023-04-03T04:59:36;3.90;;;1.33;;
72358;SDS011;60317;48.880;-0.862;2023-04-03T05:02:03;2.67;;;1.13;;
72358;SDS011;60317;48.880;-0.862;2023-04-03T05:04:29;2.58;;;1.23;;
72358;SDS011;60317;48.880;-0.862;2023-04-03T05:06:56;2.58;;;1.30;;
72358;SDS011;60317;48.880;-0.862;2023-04-03T05:09:23;2.65;;;1.02;;
72358;SDS011;60317;48.880;-0.862;2023-04-03T05:11:49;2.42;;;1.27;;
72358;SDS011;60317;48.880;-0.862;2023-04-03T05:14:16;2.97;;;1.30;;
72358;SDS011;60317;48.880;-0.862;2023-04-03T05:16:44;2.50;;;1.30;;
72358;SDS011;60317;48.880;-0.862;2023-04-03T05:19:10;2.45;;;1.23;;
72358;SDS011;60317;48.880;-0.862;2023-04-03T05:21:37;2.58;;;1.23;;
72358;SDS011;60317;48.880;-0.862;2023-04-03T05:24:04;4.22;;;1.50;;
72358;SDS011;60317;48.880;-0.862;2023-04-03T05:26:31;9.35;;;2.67;;
72358;SDS011;60317;48.880;-0.862;2023-04-03T05:28:57;7.60;;;2.38;;
72358;SDS011;60317;48.880;-0.862;2023-04-03T05:31:24;8.32;;;2.85;;
72358;SDS011;60317;48.880;-0.862;2023-04-03T05:33:52;6.60;;;2.85;;
72358;SDS011;60317;48.880;-0.862;2023-04-03T05:36:19;9.50;;;2.83;;
72358;SDS011;60317;48.880;-0.862;2023-04-03T05:38:45;8.73;;;2.88;;
72358;SDS011;60317;48.880;-0.862;2023-04-03T05:41:12;15.77;;;3.03;;
72358;SDS011;60317;48.880;-0.862;2023-04-03T05:43:39;13.32;;;2.70;;
72358;SDS011;60317;48.880;-0.862;2023-04-03T05:46:08;11.00;;;3.20;;
72358;SDS011;60317;48.880;-0.862;2023-04-03T05:48:36;12.35;;;2.90;;
72358;SDS011;60317;48.880;-0.862;2023-04-03T05:51:04;9.50;;;2.60;;
72358;SDS011;60317;48.880;-0.862;2023-04-03T05:53:31;6.30;;;1.73;;
72358;SDS011;60317;48.880;-0.862;2023-04-03T05:56:00;6.68;;;2.03;;
72358;SDS011;60317;48.880;-0.862;2023-04-03T05:58:27;8.23;;;1.85;;
72358;SDS011;60317;48.880;-0.862;2023-04-03T06:00:53;7.10;;;1.73;;
72358;SDS011;60317;48.880;-0.862;2023-04-03T06:03:20;8.93;;;1.83;;
72358;SDS011;60317;48.880;-0.862;2023-04-03T06:05:46;7.53;;;1.60;;
72358;SDS011;60317;48.880;-0.862;2023-04-03T06:08:14;8.38;;;1.90;;
72358;SDS011;60317;48.880;-0.862;2023-04-03T06:10:41;4.82;;;1.77;;
72358;SDS011;60317;48.880;-0.862;2023-04-03T06:13:07;8.57;;;1.95;;
72358;SDS011;60317;48.880;-0.862;2023-04-03T06:15:34;7.97;;;1.95;;
72358;SDS011;60317;48.880;-0.862;2023-04-03T06:18:00;8.48;;;1.77;;
72358;SDS011;60317;48.880;-0.862;2023-04-03T06:20:27;8.23;;;1.65;;
72358;SDS011;60317;48.880;-0.862;2023-04-03T06:22:54;3.88;;;1.40;;
72358;SDS011;60317;48.880;-0.862;2023-04-03T06:25:22;5.78;;;1.50;;
72358;SDS011;60317;48.880;-0.862;2023-04-03T06:27:48;6.47;;;1.70;;
72358;SDS011;60317;48.880;-0.862;2023-04-03T06:30:15;5.35;;;1.40;;
72358;SDS011;60317;48.880;-0.862;2023-04-03T06:32:42;5.32;;;1.33;;
72358;SDS011;60317;48.880;-0.862;2023-04-03T06:35:09;4.15;;;1.20;;
72358;SDS011;60317;48.880;-0.862;2023-04-03T06:37:36;5.80;;;1.65;;
72358;SDS011;60317;48.880;-0.862;2023-04-03T06:40:02;3.42;;;1.50;;
72358;SDS011;60317;48.880;-0.862;2023-04-03T06:42:31;3.67;;;1.70;;
72358;SDS011;60317;48.880;-0.862;2023-04-03T06:44:57;4.70;;;1.50;;
72358;SDS011;60317;48.880;-0.862;2023-04-03T06:47:24;3.63;;;1.40;;
72358;SDS011;60317;48.880;-0.862;2023-04-03T06:49:50;2.47;;;1.63;;
72358;SDS011;60317;48.880;-0.862;2023-04-03T06:52:17;4.22;;;1.50;;
72358;SDS011;60317;48.880;-0.862;2023-04-03T06:54:43;2.30;;;1.20;;
72358;SDS011;60317;48.880;-0.862;2023-04-03T06:57:10;1.52;;;1.10;;
72358;SDS011;60317;48.880;-0.862;2023-04-03T06:59:38;3.35;;;1.30;;
72358;SDS011;60317;48.880;-0.862;2023-04-03T07:02:04;2.05;;;1.08;;
72358;SDS011;60317;48.880;-0.862;2023-04-03T07:04:32;3.08;;;1.40;;
72358;SDS011;60317;48.880;-0.862;2023-04-03T07:06:58;1.67;;;1.25;;
72358;SDS011;60317;48.880;-0.862;2023-04-03T07:09:25;10.43;;;1.63;;
72358;SDS011;60317;48.880;-0.862;2023-04-03T07:11:51;5.68;;;1.40;;
72358;SDS011;60317;48.880;-0.862;2023-04-03T07:14:18;6.20;;;1.80;;
72358;SDS011;60317;48.880;-0.862;2023-04-03T07:16:46;6.00;;;1.70;;
72358;SDS011;60317;48.880;-0.862;2023-04-03T07:19:12;3.65;;;1.50;;
72358;SDS011;60317;48.880;-0.862;2023-04-03T07:21:40;5.13;;;1.58;;
72358;SDS011;60317;48.880;-0.862;2023-04-03T07:24:07;18.92;;;1.80;;
72358;SDS011;60317;48.880;-0.862;2023-04-03T07:26:40;2.53;;;1.52;;
72358;SDS011;60317;48.880;-0.862;2023-04-03T07:29:07;7.05;;;2.00;;
72358;SDS011;60317;48.880;-0.862;2023-04-03T07:31:35;5.90;;;2.97;;
72358;SDS011;60317;48.880;-0.862;2023-04-03T07:34:03;5.38;;;1.80;;
72358;SDS011;60317;48.880;-0.862;2023-04-03T07:36:30;2.92;;;1.40;;
72358;SDS011;60317;48.880;-0.862;2023-04-03T07:38:57;4.50;;;1.58;;
72358;SDS011;60317;48.880;-0.862;2023-04-03T07:41:24;4.78;;;1.90;;
72358;SDS011;60317;48.880;-0.862;2023-04-03T07:43:50;3.78;;;1.95;;
72358;SDS011;60317;48.880;-0.862;2023-04-03T07:46:17;4.03;;;1.60;;
72358;SDS011;60317;48.880;-0.862;2023-04-03T07:48:44;3.45;;;1.73;;
72358;SDS011;60317;48.880;-0.862;2023-04-03T07:51:12;7.50;;;1.50;;
72358;SDS011;60317;48.880;-0.862;2023-04-03T07:53:39;5.32;;;1.67;;
72358;SDS011;60317;48.880;-0.862;2023-04-03T07:56:05;8.50;;;1.98;;
72358;SDS011;60317;48.880;-0.862;2023-04-03T07:58:33;9.90;;;1.80;;
72358;SDS011;60317;48.880;-0.862;2023-04-03T08:00:59;7.60;;;1.90;;
72358;SDS011;60317;48.880;-0.862;2023-04-03T08:03:26;5.82;;;1.70;;
72358;SDS011;60317;48.880;-0.862;2023-04-03T08:05:53;5.03;;;1.75;;
72358;SDS011;60317;48.880;-0.862;2023-04-03T08:08:21;4.95;;;1.70;;
72358;SDS011;60317;48.880;-0.862;2023-04-03T08:10:48;3.75;;;1.60;;
72358;SDS011;60317;48.880;-0.862;2023-04-03T08:13:16;5.78;;;1.88;;
72358;SDS011;60317;48.880;-0.862;2023-04-03T08:15:43;7.40;;;1.58;;
72358;SDS011;60317;48.880;-0.862;2023-04-03T08:18:10;7.90;;;2.05;;
72358;SDS011;60317;48.880;-0.862;2023-04-03T08:20:37;4.10;;;1.70;;
72358;SDS011;60317;48.880;-0.862;2023-04-03T08:23:04;5.43;;;2.00;;
72358;SDS011;60317;48.880;-0.862;2023-04-03T08:25:32;11.45;;;3.60;;
72358;SDS011;60317;48.880;-0.862;2023-04-03T08:27:59;15.43;;;3.50;;
72358;SDS011;60317;48.880;-0.862;2023-04-03T08:30:25;12.05;;;3.60;;
72358;SDS011;60317;48.880;-0.862;2023-04-03T08:32:52;18.85;;;4.28;;
72358;SDS011;60317;48.880;-0.862;2023-04-03T08:35:19;21.83;;;4.22;;
72358;SDS011;60317;48.880;-0.862;2023-04-03T08:37:45;25.00;;;4.72;;
72358;SDS011;60317;48.880;-0.862;2023-04-03T08:40:12;16.83;;;2.80;;
72358;SDS011;60317;48.880;-0.862;2023-04-03T08:42:45;12.48;;;3.38;;
72358;SDS011;60317;48.880;-0.862;2023-04-03T08:45:21;12.25;;;2.60;;
72358;SDS011;60317;48.880;-0.862;2023-04-03T08:47:55;7.88;;;2.35;;
72358;SDS011;60317;48.880;-0.862;2023-04-03T08:50:29;12.75;;;3.20;;
72358;SDS011;60317;48.880;-0.862;2023-04-03T08:53:01;13.50;;;2.70;;
72358;SDS011;60317;48.880;-0.862;2023-04-03T08:55:30;9.73;;;2.50;;
72358;SDS011;60317;48.880;-0.862;2023-04-03T08:58:02;11.05;;;2.20;;
72358;SDS011;60317;48.880;-0.862;2023-04-03T09:00:30;7.65;;;2.40;;
72358;SDS011;60317;48.880;-0.862;2023-04-03T09:03:04;10.25;;;2.42;;
72358;SDS011;60317;48.880;-0.862;2023-04-03T09:05:40;11.27;;;2.50;;
72358;SDS011;60317;48.880;-0.862;2023-04-03T09:08:14;12.98;;;2.38;;
72358;SDS011;60317;48.880;-0.862;2023-04-03T09:10:48;13.70;;;2.72;;
72358;SDS011;60317;48.880;-0.862;2023-04-03T09:13:21;11.75;;;2.92;;
72358;SDS011;60317;48.880;-0.862;2023-04-03T09:15:52;11.40;;;2.90;;
72358;SDS011;60317;48.880;-0.862;2023-04-03T09:18:21;14.63;;;2.60;;
72358;SDS011;60317;48.880;-0.862;2023-04-03T09:20:57;9.70;;;2.50;;
72358;SDS011;60317;48.880;-0.862;2023-04-03T09:23:30;14.13;;;2.67;;
72358;SDS011;60317;48.880;-0.862;2023-04-03T09:26:01;10.60;;;2.72;;
72358;SDS011;60317;48.880;-0.862;2023-04-03T09:28:33;21.55;;;3.05;;
72358;SDS011;60317;48.880;-0.862;2023-04-03T09:31:16;13.15;;;2.70;;
72358;SDS011;60317;48.880;-0.862;2023-04-03T09:33:46;14.48;;;3.20;;
72358;SDS011;60317;48.880;-0.862;2023-04-03T09:36:22;15.77;;;3.58;;
72358;SDS011;60317;48.880;-0.862;2023-04-03T09:39:04;22.40;;;3.95;;
72358;SDS011;60317;48.880;-0.862;2023-04-03T09:41:31;17.67;;;3.90;;
72358;SDS011;60317;48.880;-0.862;2023-04-03T09:43:59;18.98;;;4.28;;
72358;SDS011;60317;48.880;-0.862;2023-04-03T09:46:28;14.93;;;3.50;;
72358;SDS011;60317;48.880;-0.862;2023-04-03T09:51:35;13.98;;;3.03;;
72358;SDS011;60317;48.880;-0.862;2023-04-03T09:56:52;8.00;;;3.17;;
72358;SDS011;60317;48.880;-0.862;2023-04-03T09:59:21;16.10;;;2.92;;
72358;SDS011;60317;48.880;-0.862;2023-04-03T10:01:56;6.38;;;2.75;;
72358;SDS011;60317;48.880;-0.862;2023-04-03T10:04:36;6.93;;;2.85;;
72358;SDS011;60317;48.880;-0.862;2023-04-03T10:07:30;10.60;;;2.63;;
72358;SDS011;60317;48.880;-0.862;2023-04-03T10:09:57;7.93;;;2.70;;
72358;SDS011;60317;48.880;-0.862;2023-04-03T10:12:24;12.63;;;2.67;;
72358;SDS011;60317;48.880;-0.862;2023-04-03T10:14:55;10.68;;;2.53;;
72358;SDS011;60317;48.880;-0.862;2023-04-03T10:17:26;11.43;;;2.67;;
72358;SDS011;60317;48.880;-0.862;2023-04-03T10:20:17;11.00;;;2.28;;
72358;SDS011;60317;48.880;-0.862;2023-04-03T10:22:56;7.57;;;2.53;;
72358;SDS011;60317;48.880;-0.862;2023-04-03T10:25:31;7.18;;;2.50;;
72358;SDS011;60317;48.880;-0.862;2023-04-03T10:28:07;13.77;;;2.40;;
72358;SDS011;60317;48.880;-0.862;2023-04-03T10:30:42;8.02;;;2.30;;
72358;SDS011;60317;48.880;-0.862;2023-04-03T10:33:18;8.38;;;2.45;;
72358;SDS011;60317;48.880;-0.862;2023-04-03T10:35:53;11.02;;;2.95;;
72358;SDS011;60317;48.880;-0.862;2023-04-03T10:38:31;7.47;;;2.47;;
72358;SDS011;60317;48.880;-0.862;2023-04-03T10:41:07;12.13;;;2.70;;
72358;SDS011;60317;48.880;-0.862;2023-04-03T10:43:43;5.90;;;2.17;;
72358;SDS011;60317;48.880;-0.862;2023-04-03T10:46:18;7.43;;;2.20;;
72358;SDS011;60317;48.880;-0.862;2023-04-03T10:48:52;9.35;;;2.85;;
72358;SDS011;60317;48.880;-0.862;2023-04-03T10:51:29;10.38;;;2.65;;
72358;SDS011;60317;48.880;-0.862;2023-04-03T10:54:05;7.60;;;2.50;;
72358;SDS011;60317;48.880;-0.862;2023-04-03T10:56:39;8.15;;;3.15;;
72358;SDS011;60317;48.880;-0.862;2023-04-03T10:59:12;6.35;;;2.80;;
72358;SDS011;60317;48.880;-0.862;2023-04-03T11:01:46;5.32;;;2.42;;
72358;SDS011;60317;48.880;-0.862;2023-04-03T11:04:17;6.18;;;2.75;;
72358;SDS011;60317;48.880;-0.862;2023-04-03T11:06:46;7.68;;;3.33;;
72358;SDS011;60317;48.880;-0.862;2023-04-03T11:09:18;4.90;;;2.70;;
72358;SDS011;60317;48.880;-0.862;2023-04-03T11:11:49;5.45;;;2.75;;
72358;SDS011;60317;48.880;-0.862;2023-04-03T11:14:21;4.90;;;2.60;;
72358;SDS011;60317;48.880;-0.862;2023-04-03T11:16:55;6.40;;;2.67;;
72358;SDS011;60317;48.880;-0.862;2023-04-03T11:19:34;4.85;;;2.97;;
72358;SDS011;60317;48.880;-0.862;2023-04-03T11:22:08;5.32;;;2.80;;
72358;SDS011;60317;48.880;-0.862;2023-04-03T11:24:42;4.43;;;3.50;;
72358;SDS011;60317;48.880;-0.862;2023-04-03T11:27:15;4.70;;;2.85;;
72358;SDS011;60317;48.880;-0.862;2023-04-03T11:29:45;4.85;;;2.70;;
72358;SDS011;60317;48.880;-0.862;2023-04-03T11:32:27;7.05;;;3.42;;
72358;SDS011;60317;48.880;-0.862;2023-04-03T11:35:10;10.05;;;4.07;;
72358;SDS011;60317;48.880;-0.862;2023-04-03T11:37:38;8.95;;;3.78;;
72358;SDS011;60317;48.880;-0.862;2023-04-03T11:40:07;8.05;;;3.70;;
72358;SDS011;60317;48.880;-0.862;2023-04-03T11:42:46;8.80;;;3.30;;
72358;SDS011;60317;48.880;-0.862;2023-04-03T11:45:16;10.95;;;3.92;;
72358;SDS011;60317;48.880;-0.862;2023-04-03T11:47:53;8.55;;;4.22;;
72358;SDS011;60317;48.880;-0.862;2023-04-03T11:50:30;8.57;;;3.88;;
72358;SDS011;60317;48.880;-0.862;2023-04-03T11:52:58;6.25;;;3.95;;
72358;SDS011;60317;48.880;-0.862;2023-04-03T11:58:18;6.43;;;4.28;;
72358;SDS011;60317;48.880;-0.862;2023-04-03T12:00:47;5.88;;;4.10;;
72358;SDS011;60317;48.880;-0.862;2023-04-03T12:08:50;6.88;;;4.35;;
72358;SDS011;60317;48.880;-0.862;2023-04-03T12:11:23;6.47;;;4.28;;
72358;SDS011;60317;48.880;-0.862;2023-04-03T12:14:02;6.25;;;4.22;;
72358;SDS011;60317;48.880;-0.862;2023-04-03T12:16:32;6.28;;;4.40;;
72358;SDS011;60317;48.880;-0.862;2023-04-03T12:22:11;7.75;;;4.18;;
72358;SDS011;60317;48.880;-0.862;2023-04-03T12:24:42;5.68;;;3.30;;
72358;SDS011;60317;48.880;-0.862;2023-04-03T12:27:17;9.07;;;3.88;;
72358;SDS011;60317;48.880;-0.862;2023-04-03T12:29:51;9.15;;;3.70;;
72358;SDS011;60317;48.880;-0.862;2023-04-03T12:32:26;8.17;;;4.20;;
72358;SDS011;60317;48.880;-0.862;2023-04-03T12:35:10;11.23;;;4.07;;
72358;SDS011;60317;48.880;-0.862;2023-04-03T12:37:51;6.57;;;4.20;;
72358;SDS011;60317;48.880;-0.862;2023-04-03T12:40:39;6.90;;;3.72;;
72358;SDS011;60317;48.880;-0.862;2023-04-03T12:43:18;6.32;;;3.50;;
72358;SDS011;60317;48.880;-0.862;2023-04-03T12:45:56;7.75;;;3.60;;
72358;SDS011;60317;48.880;-0.862;2023-04-03T12:48:29;6.10;;;3.22;;
72358;SDS011;60317;48.880;-0.862;2023-04-03T12:50:57;4.55;;;2.95;;
72358;SDS011;60317;48.880;-0.862;2023-04-03T12:53:25;5.30;;;3.05;;
72358;SDS011;60317;48.880;-0.862;2023-04-03T12:55:56;6.97;;;3.60;;
72358;SDS011;60317;48.880;-0.862;2023-04-03T12:58:43;4.70;;;3.15;;
72358;SDS011;60317;48.880;-0.862;2023-04-03T13:01:10;5.00;;;3.00;;
72358;SDS011;60317;48.880;-0.862;2023-04-03T13:03:39;4.43;;;2.92;;
72358;SDS011;60317;48.880;-0.862;2023-04-03T13:06:10;6.32;;;3.10;;
72358;SDS011;60317;48.880;-0.862;2023-04-03T13:08:48;5.30;;;2.90;;
72358;SDS011;60317;48.880;-0.862;2023-04-03T13:11:16;3.45;;;2.80;;
72358;SDS011;60317;48.880;-0.862;2023-04-03T13:16:23;6.05;;;3.13;;
72358;SDS011;60317;48.880;-0.862;2023-04-03T13:18:50;5.55;;;2.83;;
72358;SDS011;60317;48.880;-0.862;2023-04-03T13:21:18;7.47;;;3.25;;
72358;SDS011;60317;48.880;-0.862;2023-04-03T13:23:49;5.45;;;3.00;;
72358;SDS011;60317;48.880;-0.862;2023-04-03T13:26:30;5.82;;;2.95;;
72358;SDS011;60317;48.880;-0.862;2023-04-03T13:29:00;5.13;;;3.42;;
72358;SDS011;60317;48.880;-0.862;2023-04-03T13:31:31;5.72;;;3.35;;
72358;SDS011;60317;48.880;-0.862;2023-04-03T13:34:02;5.18;;;3.30;;
72358;SDS011;60317;48.880;-0.862;2023-04-03T13:36:33;3.35;;;2.55;;
72358;SDS011;60317;48.880;-0.862;2023-04-03T13:39:02;6.15;;;3.50;;
72358;SDS011;60317;48.880;-0.862;2023-04-03T13:41:33;4.60;;;3.10;;
72358;SDS011;60317;48.880;-0.862;2023-04-03T13:46:42;5.75;;;3.10;;
72358;SDS011;60317;48.880;-0.862;2023-04-03T13:49:17;4.32;;;3.20;;
72358;SDS011;60317;48.880;-0.862;2023-04-03T13:51:45;4.82;;;3.15;;
72358;SDS011;60317;48.880;-0.862;2023-04-03T13:54:23;5.40;;;3.22;;
72358;SDS011;60317;48.880;-0.862;2023-04-03T13:56:54;5.35;;;3.40;;
72358;SDS011;60317;48.880;-0.862;2023-04-03T13:59:23;5.05;;;3.40;;
72358;SDS011;60317;48.880;-0.862;2023-04-03T14:01:54;6.70;;;3.00;;
72358;SDS011;60317;48.880;-0.862;2023-04-03T14:04:43;5.82;;;3.50;;
72358;SDS011;60317;48.880;-0.862;2023-04-03T14:07:13;5.72;;;3.22;;
72358;SDS011;60317;48.880;-0.862;2023-04-03T14:09:41;5.50;;;2.95;;
72358;SDS011;60317;48.880;-0.862;2023-04-03T14:12:12;6.68;;;3.25;;
72358;SDS011;60317;48.880;-0.862;2023-04-03T14:14:56;5.13;;;3.08;;
72358;SDS011;60317;48.880;-0.862;2023-04-03T14:17:23;5.13;;;3.10;;
72358;SDS011;60317;48.880;-0.862;2023-04-03T14:19:52;4.78;;;3.00;;
72358;SDS011;60317;48.880;-0.862;2023-04-03T14:22:20;7.20;;;3.10;;
72358;SDS011;60317;48.880;-0.862;2023-04-03T14:24:48;6.55;;;3.20;;
72358;SDS011;60317;48.880;-0.862;2023-04-03T14:27:18;5.20;;;3.20;;
72358;SDS011;60317;48.880;-0.862;2023-04-03T14:29:47;5.85;;;3.30;;
72358;SDS011;60317;48.880;-0.862;2023-04-03T14:32:15;4.75;;;2.80;;
72358;SDS011;60317;48.880;-0.862;2023-04-03T14:34:44;5.90;;;3.20;;
72358;SDS011;60317;48.880;-0.862;2023-04-03T14:37:12;6.13;;;3.40;;
72358;SDS011;60317;48.880;-0.862;2023-04-03T14:39:40;7.22;;;2.88;;
72358;SDS011;60317;48.880;-0.862;2023-04-03T14:42:10;5.97;;;3.50;;
72358;SDS011;60317;48.880;-0.862;2023-04-03T14:44:40;7.43;;;3.83;;
72358;SDS011;60317;48.880;-0.862;2023-04-03T14:47:08;6.82;;;4.15;;
72358;SDS011;60317;48.880;-0.862;2023-04-03T14:49:45;6.30;;;4.20;;
72358;SDS011;60317;48.880;-0.862;2023-04-03T14:52:16;7.65;;;4.57;;
72358;SDS011;60317;48.880;-0.862;2023-04-03T14:54:45;8.95;;;4.25;;
72358;SDS011;60317;48.880;-0.862;2023-04-03T14:57:12;7.57;;;4.05;;
72358;SDS011;60317;48.880;-0.862;2023-04-03T14:59:41;7.35;;;4.20;;
72358;SDS011;60317;48.880;-0.862;2023-04-03T15:02:24;5.55;;;3.88;;
72358;SDS011;60317;48.880;-0.862;2023-04-03T15:04:54;8.98;;;4.63;;
72358;SDS011;60317;48.880;-0.862;2023-04-03T15:07:21;7.10;;;4.07;;
72358;SDS011;60317;48.880;-0.862;2023-04-03T15:09:48;6.28;;;4.22;;